Time;durP1;ratioP1;P1;durP2;ratioP2;P2;SDS_P1;SDS_P2;PMS_P1;PMS_P2;Temp;Humidity;BMP_temperature;BMP_pressure;BME280_temperature;BME280_humidity;BME280_pressure;Samples;Min_cycle;Max_cycle;Signal;HPM_P1;HPM_P2
2023/09/18 00:00:30;;;;;;;4.68;2.53;;;;;;;18.29;97.96;96699.41;4993401;28;20038;-60
2023/09/18 00:02:56;;;;;;;5.15;2.22;;;;;;;18.40;97.35;96694.44;5003623;28;20056;-59
2023/09/18 00:05:23;;;;;;;4.93;2.53;;;;;;;18.51;96.77;96696.84;4992826;28;20081;-60
2023/09/18 00:07:49;;;;;;;4.53;2.30;;;;;;;18.49;96.99;96686.19;4988297;28;20422;-60
2023/09/18 00:10:16;;;;;;;4.47;2.92;;;;;;;18.53;96.58;96689.91;4993791;28;20058;-60
2023/09/18 00:12:43;;;;;;;5.25;2.65;;;;;;;18.61;96.24;96685.56;4992289;28;20065;-59
2023/09/18 00:15:09;;;;;;;3.97;2.35;;;;;;;18.65;96.33;96686.53;4991545;28;20063;-59
2023/09/18 00:17:36;;;;;;;6.43;2.15;;;;;;;18.64;96.41;96686.88;4998633;28;20709;-60
2023/09/18 00:20:06;;;;;;;4.40;2.10;;;;;;;18.61;96.61;96669.09;4999941;28;20046;-60
2023/09/18 00:22:33;;;;;;;5.13;2.13;;;;;;;18.57;97.09;96666.22;4996030;28;20412;-59
2023/09/18 00:25:01;;;;;;;6.47;2.30;;;;;;;18.59;96.95;96653.00;5002116;28;20281;-60
2023/09/18 00:27:28;;;;;;;3.75;1.95;;;;;;;18.62;96.72;96664.44;4995317;28;20117;-60
2023/09/18 00:29:55;;;;;;;4.38;2.50;;;;;;;18.57;97.10;96663.47;4990858;28;20135;-60
2023/09/18 00:32:21;;;;;;;5.85;2.33;;;;;;;18.58;96.71;96654.13;4998874;28;20100;-60
2023/09/18 00:34:48;;;;;;;4.93;2.10;;;;;;;18.61;96.68;96641.69;4996217;28;20038;-60
2023/09/18 00:37:16;;;;;;;4.90;2.53;;;;;;;18.57;96.99;96644.28;4998315;28;20049;-60
2023/09/18 00:39:44;;;;;;;4.50;2.60;;;;;;;18.59;96.88;96647.53;4995249;28;20421;-59
2023/09/18 00:42:13;;;;;;;4.70;2.25;;;;;;;18.63;96.45;96633.16;5001315;28;20034;-60
2023/09/18 00:44:43;;;;;;;4.85;2.53;;;;;;;18.66;96.68;96635.25;4990500;28;20034;-60
2023/09/18 00:47:11;;;;;;;5.82;2.63;;;;;;;18.66;96.39;96641.56;4999257;28;20040;-60
2023/09/18 00:49:40;;;;;;;5.97;2.42;;;;;;;18.77;95.74;96641.22;4993277;28;20039;-60
2023/09/18 00:52:08;;;;;;;6.13;2.40;;;;;;;18.93;94.64;96631.34;4997234;28;20046;-60
2023/09/18 00:54:36;;;;;;;5.47;2.00;;;;;;;19.03;94.14;96621.16;4989431;28;20096;-59
2023/09/18 00:57:04;;;;;;;4.78;2.58;;;;;;;19.09;93.60;96615.22;4990175;28;20060;-60
2023/09/18 00:59:31;;;;;;;3.35;1.85;;;;;;;19.19;92.86;96622.28;4999218;28;20038;-60
2023/09/18 01:01:59;;;;;;;5.22;2.15;;;;;;;19.30;92.48;96616.44;4989076;28;20097;-60
2023/09/18 01:04:28;;;;;;;5.18;2.22;;;;;;;19.44;91.03;96605.25;4990098;28;20153;-60
2023/09/18 01:06:56;;;;;;;4.40;2.25;;;;;;;19.49;91.05;96603.13;4998284;28;20428;-59
2023/09/18 01:09:23;;;;;;;5.18;2.42;;;;;;;19.58;90.28;96624.25;4998594;28;20053;-60
2023/09/18 01:12:17;;;;;;;5.47;2.67;;;;;;;19.69;89.11;96628.25;4994560;28;20286;-60
2023/09/18 01:15:01;;;;;;;4.78;2.50;;;;;;;19.74;89.06;96627.25;4994894;28;20048;-60
2023/09/18 01:17:29;;;;;;;6.00;2.10;;;;;;;19.86;87.50;96630.09;4993318;28;20038;-60
2023/09/18 01:19:55;;;;;;;8.75;1.73;;;;;;;20.04;86.01;96627.28;4998879;28;20052;-60
2023/09/18 01:22:22;;;;;;;3.63;1.95;;;;;;;20.16;84.88;96626.53;4991447;28;20123;-60
2023/09/18 01:24:49;;;;;;;6.28;2.10;;;;;;;20.23;84.39;96634.28;4995459;28;20045;-60
2023/09/18 01:27:17;;;;;;;4.13;1.80;;;;;;;20.28;83.08;96640.38;4996043;28;20044;-60
2023/09/18 01:29:45;;;;;;;5.85;2.17;;;;;;;20.35;82.27;96639.06;4996539;28;20074;-60
2023/09/18 01:32:11;;;;;;;5.07;2.28;;;;;;;20.31;81.86;96646.34;4993231;28;20096;-59
2023/09/18 01:34:47;;;;;;;6.13;2.05;;;;;;;20.31;81.84;96654.59;4987270;28;20050;-60
2023/09/18 01:37:29;;;;;;;4.97;1.95;;;;;;;20.22;82.38;96665.63;4994106;28;20029;-60
2023/09/18 01:39:59;;;;;;;5.90;2.80;;;;;;;20.13;83.41;96666.50;4989034;28;20046;-60
2023/09/18 01:42:27;;;;;;;7.10;2.70;;;;;;;20.06;83.44;96693.72;4996472;28;20413;-60
2023/09/18 01:44:55;;;;;;;6.93;2.30;;;;;;;19.98;84.05;96681.59;5002581;28;20049;-60
2023/09/18 01:47:26;;;;;;;6.22;2.45;;;;;;;20.00;83.25;96681.28;4990762;28;20056;-60
2023/09/18 01:49:53;;;;;;;3.90;2.03;;;;;;;20.16;84.15;96677.97;4990395;28;20058;-59
2023/09/18 01:52:20;;;;;;;11.13;2.60;;;;;;;20.19;86.81;96672.59;4991449;28;20505;-60
2023/09/18 01:54:47;;;;;;;6.18;2.33;;;;;;;20.10;90.02;96647.13;4995902;28;20069;-60
2023/09/18 01:57:14;;;;;;;5.82;2.00;;;;;;;19.94;89.94;96633.13;4995345;28;20520;-60
2023/09/18 01:59:41;;;;;;;6.57;2.10;;;;;;;19.85;92.08;96587.28;4995389;28;20699;-60
2023/09/18 02:02:09;;;;;;;12.48;2.67;;;;;;;19.85;90.63;96540.59;4992749;28;20042;-60
2023/09/18 02:04:41;;;;;;;7.57;2.20;;;;;;;19.83;92.71;96545.59;4998177;28;20041;-60
2023/09/18 02:07:27;;;;;;;9.25;2.38;;;;;;;19.73;95.78;96578.97;4992799;28;20672;-60
2023/09/18 02:09:54;;;;;;;10.05;2.30;;;;;;;19.65;95.35;96568.81;5000284;28;20505;-60
2023/09/18 02:12:20;;;;;;;6.75;2.10;;;;;;;19.79;93.94;96585.84;4988159;28;20056;-60
2023/09/18 02:14:47;;;;;;;6.63;1.92;;;;;;;19.69;93.70;96610.97;4995633;28;20659;-60
2023/09/18 02:17:14;;;;;;;9.88;2.38;;;;;;;19.63;94.18;96629.56;4992580;28;20448;-60
2023/09/18 02:19:40;;;;;;;11.10;3.00;;;;;;;19.50;96.68;96647.88;4995650;28;20154;-59
2023/09/18 02:22:07;;;;;;;10.82;2.35;;;;;;;19.30;99.42;96657.59;4993453;28;20049;-60
2023/09/18 02:24:34;;;;;;;6.88;2.42;;;;;;;19.42;97.05;96649.50;4990852;28;20549;-60
2023/09/18 02:27:04;;;;;;;6.07;2.17;;;;;;;19.42;95.68;96630.28;4996304;28;20049;-60
2023/09/18 02:29:31;;;;;;;7.07;2.42;;;;;;;19.33;94.88;96635.81;5004174;28;20117;-60
2023/09/18 02:31:57;;;;;;;6.28;1.80;;;;;;;19.35;95.63;96625.31;4990860;28;20108;-59
2023/09/18 02:34:24;;;;;;;5.15;1.80;;;;;;;19.36;94.17;96610.44;4999800;28;20039;-59
2023/09/18 02:36:51;;;;;;;5.55;1.45;;;;;;;19.54;90.54;96620.56;4996824;28;20514;-59
2023/09/18 02:39:17;;;;;;;8.45;2.65;;;;;;;19.54;92.41;96626.88;5002414;28;20112;-60
2023/09/18 02:41:44;;;;;;;7.05;2.10;;;;;;;19.47;91.81;96627.34;4996246;28;20053;-60
2023/09/18 02:44:10;;;;;;;4.07;1.45;;;;;;;19.49;92.79;96618.78;5000013;28;20552;-60
2023/09/18 02:46:38;;;;;;;8.30;2.30;;;;;;;19.00;100.00;96616.31;4998069;28;20038;-60
2023/09/18 02:49:04;;;;;;;6.22;2.10;;;;;;;18.77;100.00;96624.75;4998626;28;20048;-60
2023/09/18 02:51:34;;;;;;;8.82;2.60;;;;;;;18.75;100.00;96624.28;4992986;28;20125;-60
2023/09/18 02:54:00;;;;;;;8.23;2.10;;;;;;;18.66;100.00;96629.78;4990747;28;20034;-60
2023/09/18 02:56:27;;;;;;;9.75;2.00;;;;;;;18.50;100.00;96618.50;5000010;28;20045;-59
2023/09/18 02:58:54;;;;;;;7.53;1.70;;;;;;;18.53;100.00;96615.91;5001379;28;20556;-60
2023/09/18 03:01:20;;;;;;;7.32;2.50;;;;;;;18.48;100.00;96612.50;4992290;28;20042;-60
2023/09/18 03:03:47;;;;;;;5.80;1.70;;;;;;;18.45;100.00;96606.56;4992982;28;20081;-60
2023/09/18 03:06:14;;;;;;;6.00;1.80;;;;;;;18.26;100.00;96609.63;4991729;28;20042;-60
2023/09/18 03:08:41;;;;;;;3.97;2.45;;;;;;;18.02;100.00;96613.56;4995570;28;20121;-60
2023/09/18 03:11:14;;;;;;;5.55;2.13;;;;;;;17.91;100.00;96606.81;5002090;28;20041;-60
2023/09/18 03:13:46;;;;;;;6.10;2.05;;;;;;;17.91;100.00;96595.84;5001203;28;20064;-60
2023/09/18 03:16:14;;;;;;;7.80;2.53;;;;;;;17.97;100.00;96591.81;4998639;28;20076;-60
2023/09/18 03:18:42;;;;;;;8.65;2.35;;;;;;;18.05;100.00;96591.03;4989591;28;20046;-60
2023/09/18 03:21:09;;;;;;;13.73;2.72;;;;;;;17.96;100.00;96584.72;4985648;28;20049;-60
2023/09/18 03:23:36;;;;;;;6.80;1.95;;;;;;;17.88;100.00;96593.75;4996548;28;20051;-60
2023/09/18 03:26:03;;;;;;;9.80;2.17;;;;;;;17.84;100.00;96598.25;4994115;28;20038;-60
2023/09/18 03:28:29;;;;;;;7.03;2.17;;;;;;;17.79;100.00;96612.88;4997804;28;20064;-60
2023/09/18 03:30:58;;;;;;;8.05;2.20;;;;;;;17.80;100.00;96611.78;4998438;28;20425;-60
2023/09/18 03:33:25;;;;;;;5.82;2.03;;;;;;;17.79;100.00;96632.84;4990036;28;20049;-60
2023/09/18 03:35:54;;;;;;;7.45;1.83;;;;;;;17.87;100.00;96639.47;4991907;28;20121;-60
2023/09/18 03:38:24;;;;;;;6.28;2.10;;;;;;;17.95;100.00;96651.59;4988409;28;20035;-60
2023/09/18 03:40:51;;;;;;;6.63;2.13;;;;;;;18.01;100.00;96661.25;4996308;28;20537;-60
2023/09/18 03:43:19;;;;;;;5.00;1.90;;;;;;;17.99;100.00;96673.66;4999013;28;20054;-60
2023/09/18 03:45:46;;;;;;;9.43;3.22;;;;;;;18.03;100.00;96675.44;4987666;28;20406;-60
2023/09/18 03:48:12;;;;;;;6.72;2.13;;;;;;;18.20;100.00;96698.56;4993969;28;20035;-60
2023/09/18 03:50:39;;;;;;;11.25;3.35;;;;;;;18.35;100.00;96702.78;4996335;28;20045;-59
2023/09/18 03:53:08;;;;;;;8.23;2.00;;;;;;;18.63;100.00;96724.44;4999070;28;20756;-60
2023/09/18 03:55:35;;;;;;;9.35;2.20;;;;;;;18.87;100.00;96731.38;5006881;28;20053;-60
2023/09/18 03:58:02;;;;;;;5.63;1.80;;;;;;;19.02;100.00;96743.00;4993645;28;20034;-60
2023/09/18 04:00:28;;;;;;;7.00;1.77;;;;;;;19.10;100.00;96732.03;4995864;28;20074;-60
2023/09/18 04:02:55;;;;;;;6.55;1.98;;;;;;;19.24;97.37;96737.38;4993902;28;20080;-59
2023/09/18 04:05:22;;;;;;;5.00;1.90;;;;;;;19.33;96.37;96742.03;4999689;28;20061;-60
2023/09/18 04:07:49;;;;;;;9.77;1.90;;;;;;;19.49;96.78;96739.59;5003660;28;20100;-60
2023/09/18 04:10:19;;;;;;;13.50;3.88;;;;;;;19.58;95.75;96732.16;5002909;28;20053;-60
2023/09/18 04:12:46;;;;;;;8.17;2.27;;;;;;;19.62;94.79;96727.63;4999221;28;20042;-60
2023/09/18 04:15:14;;;;;;;4.38;1.58;;;;;;;19.74;92.90;96702.22;4993173;28;20277;-60
2023/09/18 04:17:41;;;;;;;7.00;1.90;;;;;;;19.85;91.45;96691.66;4991831;28;20050;-60
2023/09/18 04:20:09;;;;;;;7.40;1.80;;;;;;;19.89;92.87;96687.13;4990762;28;20097;-59
2023/09/18 04:22:35;;;;;;;5.68;1.60;;;;;;;19.83;92.25;96680.19;4991474;28;20133;-60
2023/09/18 04:25:05;;;;;;;5.85;1.73;;;;;;;19.88;92.63;96670.97;4990005;28;20133;-60
2023/09/18 04:27:31;;;;;;;6.38;1.50;;;;;;;19.68;94.13;96632.13;4998271;28;20041;-60
2023/09/18 04:30:00;;;;;;;8.80;1.73;;;;;;;19.51;96.74;96613.78;4996143;28;20556;-60
2023/09/18 04:32:29;;;;;;;6.47;1.52;;;;;;;19.28;100.00;96592.09;4994664;28;20116;-60
2023/09/18 04:34:56;;;;;;;5.20;1.60;;;;;;;19.15;100.00;96577.44;4996707;28;20690;-60
2023/09/18 04:37:22;;;;;;;9.20;2.40;;;;;;;19.02;100.00;96557.25;4998432;28;20537;-60
2023/09/18 04:39:49;;;;;;;5.75;1.50;;;;;;;18.93;100.00;96549.06;4995670;28;20108;-60
2023/09/18 04:42:15;;;;;;;7.65;1.70;;;;;;;18.84;100.00;96554.56;4992433;28;20084;-60
2023/09/18 04:44:42;;;;;;;6.15;1.65;;;;;;;18.82;100.00;96572.47;4996009;28;20042;-60
2023/09/18 04:47:08;;;;;;;8.25;1.58;;;;;;;18.76;100.00;96566.34;4995898;28;20040;-59
2023/09/18 04:49:35;;;;;;;6.28;1.67;;;;;;;18.65;100.00;96556.88;4994696;28;20104;-60
2023/09/18 04:52:02;;;;;;;8.43;1.83;;;;;;;18.50;100.00;96539.78;5000456;28;20718;-60
2023/09/18 04:54:28;;;;;;;8.02;2.00;;;;;;;18.45;100.00;96532.56;4997939;28;20049;-60
2023/09/18 04:56:55;;;;;;;5.72;1.75;;;;;;;18.40;100.00;96530.00;4997463;28;20042;-60
2023/09/18 04:59:21;;;;;;;4.65;1.33;;;;;;;18.30;100.00;96539.34;4991840;28;20041;-60
2023/09/18 05:01:48;;;;;;;4.78;1.35;;;;;;;18.25;100.00;96552.41;4992933;28;20598;-60
2023/09/18 05:04:15;;;;;;;7.50;1.80;;;;;;;18.23;100.00;96565.59;4993715;28;20042;-60
2023/09/18 05:06:41;;;;;;;6.93;1.83;;;;;;;18.21;100.00;96574.16;4997838;28;20145;-60
2023/09/18 05:09:08;;;;;;;7.13;3.05;;;;;;;18.23;100.00;96588.34;4997009;28;20045;-60
2023/09/18 05:11:35;;;;;;;8.70;1.73;;;;;;;18.25;100.00;96579.78;4997946;28;20125;-60
2023/09/18 05:14:02;;;;;;;6.07;1.60;;;;;;;18.30;100.00;96583.19;4994713;28;20053;-60
2023/09/18 05:16:29;;;;;;;4.90;1.60;;;;;;;18.33;100.00;96577.03;4990686;28;20141;-60
2023/09/18 05:18:55;;;;;;;8.75;2.92;;;;;;;18.36;100.00;96591.25;4994118;28;20434;-60
2023/09/18 05:21:24;;;;;;;7.00;1.60;;;;;;;18.35;100.00;96608.81;4999446;28;20045;-60
2023/09/18 05:23:51;;;;;;;5.40;1.65;;;;;;;18.16;100.00;96615.38;4989452;28;20065;-60
2023/09/18 05:26:18;;;;;;;4.80;1.63;;;;;;;18.13;100.00;96607.84;4994935;28;20528;-60
2023/09/18 05:28:44;;;;;;;9.57;1.70;;;;;;;18.05;100.00;96615.69;4995034;28;20458;-60
2023/09/18 05:31:11;;;;;;;4.90;1.50;;;;;;;18.11;100.00;96616.38;4996057;28;20054;-60
2023/09/18 05:33:37;;;;;;;7.15;1.60;;;;;;;18.20;100.00;96608.16;4990858;28;20050;-60
2023/09/18 05:36:04;;;;;;;5.43;2.15;;;;;;;18.26;100.00;96608.78;4997841;28;20037;-60
2023/09/18 05:38:30;;;;;;;6.65;1.50;;;;;;;18.38;100.00;96610.88;4999046;28;20046;-60
2023/09/18 05:40:57;;;;;;;4.95;1.27;;;;;;;18.54;100.00;96624.94;4984717;28;20050;-60
2023/09/18 05:43:23;;;;;;;5.70;1.70;;;;;;;18.58;100.00;96628.66;4996489;28;20157;-60
2023/09/18 05:45:50;;;;;;;6.97;1.80;;;;;;;18.46;100.00;96627.34;4998797;28;20045;-60
2023/09/18 05:48:16;;;;;;;12.57;1.80;;;;;;;18.35;100.00;96626.03;4994614;28;20501;-60
2023/09/18 05:50:43;;;;;;;6.43;1.83;;;;;;;18.26;100.00;96620.56;4999780;28;20069;-60
2023/09/18 05:53:10;;;;;;;6.85;1.75;;;;;;;18.16;100.00;96621.69;4997451;28;20069;-60
2023/09/18 05:55:36;;;;;;;5.25;1.60;;;;;;;18.17;100.00;96606.84;4996139;28;20100;-60
2023/09/18 05:58:04;;;;;;;8.63;1.92;;;;;;;18.09;100.00;96615.06;5001439;28;20041;-60
2023/09/18 06:00:31;;;;;;;7.13;1.70;;;;;;;18.04;100.00;96608.59;4994756;28;20073;-60
2023/09/18 06:02:58;;;;;;;6.97;2.70;;;;;;;18.13;100.00;96616.06;4997958;28;20049;-60
2023/09/18 06:05:26;;;;;;;6.35;1.75;;;;;;;18.15;100.00;96602.81;4995452;28;20112;-60
2023/09/18 06:07:53;;;;;;;7.03;1.95;;;;;;;18.24;100.00;96600.91;4996335;28;20045;-60
2023/09/18 06:10:19;;;;;;;6.45;1.60;;;;;;;18.37;100.00;96596.41;5000412;28;20560;-59
2023/09/18 06:12:46;;;;;;;5.90;2.13;;;;;;;18.36;100.00;96596.72;4999046;28;20037;-59
2023/09/18 06:15:13;;;;;;;6.68;1.40;;;;;;;18.33;100.00;96603.66;5003474;28;20046;-60
2023/09/18 06:17:41;;;;;;;4.07;1.25;;;;;;;18.29;100.00;96602.69;4995772;28;20061;-60
2023/09/18 06:20:10;;;;;;;7.85;1.58;;;;;;;18.32;100.00;96611.06;5002221;28;20224;-60
2023/09/18 06:22:38;;;;;;;5.45;1.63;;;;;;;18.29;100.00;96608.16;4991699;28;20046;-60
2023/09/18 06:25:06;;;;;;;6.38;1.40;;;;;;;18.45;100.00;96611.22;4998757;28;20128;-60
2023/09/18 06:27:36;;;;;;;7.22;1.48;;;;;;;18.49;100.00;96622.34;5001868;28;20057;-60
2023/09/18 06:30:06;;;;;;;7.47;2.33;;;;;;;18.37;100.00;96623.00;4998425;28;20045;-60
2023/09/18 06:32:33;;;;;;;6.13;1.50;;;;;;;18.43;100.00;96638.94;4995949;28;20038;-60
2023/09/18 06:35:00;;;;;;;5.72;1.73;;;;;;;18.44;100.00;96640.59;4997540;28;20057;-60
2023/09/18 06:37:27;;;;;;;3.33;1.30;;;;;;;18.48;100.00;96637.19;4996658;28;20046;-60
2023/09/18 06:39:54;;;;;;;5.30;1.83;;;;;;;18.53;100.00;96637.00;5000520;28;20038;-60
2023/09/18 06:42:21;;;;;;;6.20;1.30;;;;;;;18.65;100.00;96631.69;5005054;28;20061;-60
2023/09/18 06:44:56;;;;;;;7.22;2.10;;;;;;;18.80;100.00;96633.13;4998442;28;20042;-60
2023/09/18 06:47:24;;;;;;;6.18;1.65;;;;;;;18.84;100.00;96627.81;4993659;28;20046;-60
2023/09/18 06:49:51;;;;;;;4.78;1.30;;;;;;;18.82;100.00;96632.81;5001552;28;20096;-60
2023/09/18 06:52:18;;;;;;;3.55;1.05;;;;;;;18.95;100.00;96625.53;5002420;28;20042;-60
2023/09/18 06:54:44;;;;;;;5.82;1.30;;;;;;;18.98;100.00;96631.19;4998619;28;20042;-60
2023/09/18 06:57:11;;;;;;;4.25;1.30;;;;;;;19.05;99.34;96629.91;4998595;28;20053;-60
2023/09/18 06:59:37;;;;;;;4.30;1.15;;;;;;;19.16;97.46;96622.94;5000606;28;20115;-60
2023/09/18 07:02:04;;;;;;;4.30;1.48;;;;;;;19.19;99.02;96618.72;5001410;28;20046;-60
2023/09/18 07:04:31;;;;;;;4.05;1.00;;;;;;;19.24;96.29;96629.56;4995419;28;20120;-59
2023/09/18 07:06:57;;;;;;;2.72;1.00;;;;;;;19.26;96.85;96632.75;5000406;28;20622;-60
2023/09/18 07:09:24;;;;;;;7.68;2.03;;;;;;;19.39;94.50;96622.72;4996659;28;20041;-60
2023/09/18 07:11:51;;;;;;;4.45;0.88;;;;;;;19.45;93.08;96628.81;4992963;28;20041;-60
2023/09/18 07:14:18;;;;;;;4.60;1.50;;;;;;;19.50;92.05;96645.13;4999897;28;20499;-60
2023/09/18 07:16:45;;;;;;;4.60;1.13;;;;;;;19.58;88.77;96658.03;5000399;28;20619;-60
2023/09/18 07:19:16;;;;;;;4.10;0.90;;;;;;;19.54;90.36;96659.00;4995541;28;20039;-60
2023/09/18 07:21:43;;;;;;;;;;;;;;;19.56;89.65;96660.28;4994370;28;20045;-60
2023/09/18 07:24:10;;;;;;;7.65;1.30;;;;;;;19.68;89.46;96676.06;5001650;28;19921;-60
2023/09/18 07:26:36;;;;;;;6.40;0.80;;;;;;;19.73;86.97;96683.31;4996961;28;20045;-60
2023/09/18 07:29:03;;;;;;;2.60;0.60;;;;;;;19.71;85.83;96685.56;4996968;28;20046;-60
2023/09/18 07:31:30;;;;;;;13.73;1.20;;;;;;;19.62;88.99;96680.94;4995002;28;20105;-60
2023/09/18 07:33:56;;;;;;;3.17;0.70;;;;;;;19.56;87.49;96679.50;5000539;28;20046;-60
2023/09/18 07:36:23;;;;;;;4.85;0.90;;;;;;;19.48;89.68;96691.31;4999029;28;20052;-60
2023/09/18 07:38:49;;;;;;;2.13;0.50;;;;;;;19.43;88.82;96694.22;4999695;28;20049;-60
2023/09/18 07:41:19;;;;;;;1.40;0.65;;;;;;;19.43;89.52;96696.97;4998063;28;20041;-60
2023/09/18 07:43:45;;;;;;;2.72;0.63;;;;;;;19.39;91.70;96696.03;4994198;28;20141;-60
2023/09/18 07:46:12;;;;;;;2.33;0.52;;;;;;;19.50;88.44;96698.09;4994537;28;20052;-60
2023/09/18 07:48:38;;;;;;;1.48;0.52;;;;;;;19.45;90.84;96713.91;4990853;28;20081;-60
2023/09/18 07:51:05;;;;;;;2.67;0.77;;;;;;;19.46;90.65;96715.56;4994572;28;20496;-60
2023/09/18 07:53:32;;;;;;;2.45;0.68;;;;;;;19.51;87.70;96704.38;4990971;28;20034;-61
2023/09/18 07:55:58;;;;;;;3.63;0.80;;;;;;;19.60;91.41;96713.41;4997702;28;20136;-60
2023/09/18 07:58:27;;;;;;;4.65;1.27;;;;;;;19.60;89.85;96710.66;5001306;28;20042;-60
2023/09/18 08:00:57;;;;;;;3.35;0.75;;;;;;;19.56;91.14;96714.38;4994053;28;20062;-61
2023/09/18 08:03:24;;;;;;;3.13;0.70;;;;;;;19.58;90.31;96726.66;4993797;28;20042;-60
2023/09/18 08:05:53;;;;;;;2.47;0.77;;;;;;;19.63;90.85;96723.75;4999118;28;20042;-61
2023/09/18 08:08:21;;;;;;;6.03;0.77;;;;;;;19.69;90.89;96731.78;4998289;28;20038;-60
2023/09/18 08:10:48;;;;;;;2.80;0.68;;;;;;;19.60;90.75;96740.03;5000906;28;20042;-60
2023/09/18 08:13:15;;;;;;;1.83;0.40;;;;;;;19.71;89.08;96752.31;4996833;28;20046;-60
2023/09/18 08:15:41;;;;;;;4.28;0.70;;;;;;;19.82;87.37;96746.44;4996306;28;20057;-60
2023/09/18 08:18:08;;;;;;;2.42;0.70;;;;;;;19.80;90.35;96744.03;5005374;28;20152;-61
2023/09/18 08:20:36;;;;;;;3.80;1.00;;;;;;;19.80;90.16;96755.03;4999619;28;20041;-61
2023/09/18 08:23:05;;;;;;;4.15;0.70;;;;;;;19.38;92.97;96768.53;5001029;28;20061;-60
2023/09/18 08:25:32;;;;;;;2.95;0.75;;;;;;;19.20;94.19;96757.56;4993994;28;20038;-60
2023/09/18 08:27:58;;;;;;;3.03;0.80;;;;;;;19.23;94.98;96754.97;4994440;28;20468;-60
2023/09/18 08:30:25;;;;;;;2.92;0.60;;;;;;;18.99;97.19;96763.66;4989117;28;20565;-60
2023/09/18 08:32:52;;;;;;;3.80;0.70;;;;;;;19.03;97.00;96761.91;4993462;28;20051;-60
2023/09/18 08:35:18;;;;;;;4.78;0.65;;;;;;;18.70;100.00;96767.81;4997253;28;20053;-60
2023/09/18 08:37:45;;;;;;;5.47;0.70;;;;;;;18.46;100.00;96785.50;4997948;28;20047;-60
2023/09/18 08:40:13;;;;;;;4.55;1.50;;;;;;;18.29;100.00;96770.66;4996368;28;20034;-60
2023/09/18 08:42:46;;;;;;;5.65;1.13;;;;;;;18.15;100.00;96756.25;4990256;28;20046;-60
2023/09/18 08:45:30;;;;;;;5.03;1.10;;;;;;;17.85;100.00;96736.75;4996371;28;20092;-60
2023/09/18 08:47:58;;;;;;;6.50;1.05;;;;;;;17.66;100.00;96727.66;4993721;28;20053;-60
2023/09/18 08:50:26;;;;;;;3.97;1.13;;;;;;;17.55;100.00;96732.59;4990279;28;20042;-60
2023/09/18 08:52:54;;;;;;;2.35;0.88;;;;;;;17.42;100.00;96747.16;4993830;28;20049;-60
2023/09/18 08:55:21;;;;;;;3.03;1.20;;;;;;;17.45;100.00;96746.53;4998840;28;20054;-60
2023/09/18 08:57:49;;;;;;;6.20;1.10;;;;;;;17.35;100.00;96760.47;4997165;28;20093;-60
2023/09/18 09:00:19;;;;;;;2.85;0.90;;;;;;;17.44;100.00;96775.03;4997211;28;20185;-60
2023/09/18 09:02:48;;;;;;;3.58;0.90;;;;;;;17.58;100.00;96791.38;4991051;28;20045;-60
2023/09/18 09:05:15;;;;;;;4.53;1.00;;;;;;;17.53;100.00;96786.84;4993786;28;20496;-60
2023/09/18 09:07:42;;;;;;;3.67;0.60;;;;;;;17.55;100.00;96798.28;4994446;28;20048;-60
2023/09/18 09:10:09;;;;;;;5.53;1.35;;;;;;;17.42;100.00;96805.44;5001376;28;20046;-60
2023/09/18 09:12:56;;;;;;;2.40;0.70;;;;;;;17.44;100.00;96818.00;5000425;28;20125;-60
2023/09/18 09:15:28;;;;;;;6.30;0.95;;;;;;;17.46;100.00;96822.03;4992333;28;20066;-60
2023/09/18 09:18:05;;;;;;;2.75;0.90;;;;;;;17.42;100.00;96821.88;4994559;28;20054;-60
2023/09/18 09:20:32;;;;;;;5.72;1.08;;;;;;;17.33;100.00;96825.66;4993546;28;20046;-60
2023/09/18 09:23:03;;;;;;;3.22;0.80;;;;;;;17.26;100.00;96826.91;4999202;28;20054;-60
2023/09/18 09:25:33;;;;;;;3.38;1.02;;;;;;;17.20;100.00;96830.03;4997230;28;20056;-60
2023/09/18 09:28:03;;;;;;;5.72;1.08;;;;;;;17.21;100.00;96809.78;4995331;28;20073;-60
2023/09/18 09:30:31;;;;;;;3.33;0.68;;;;;;;17.20;100.00;96795.28;4993553;28;20099;-60
2023/09/18 09:32:59;;;;;;;4.32;1.00;;;;;;;17.25;100.00;96800.63;5000295;28;20053;-60
2023/09/18 09:35:29;;;;;;;3.60;1.10;;;;;;;17.35;100.00;96788.66;5001245;28;20048;-60
2023/09/18 09:38:01;;;;;;;6.25;2.35;;;;;;;17.43;100.00;96784.34;4998379;28;20074;-60
2023/09/18 09:40:30;;;;;;;5.10;1.55;;;;;;;17.55;100.00;96786.53;4994181;28;20118;-60
2023/09/18 09:43:00;;;;;;;5.57;1.00;;;;;;;17.62;100.00;96777.88;5000345;28;20049;-60
2023/09/18 09:45:29;;;;;;;6.30;1.42;;;;;;;17.75;100.00;96779.72;4999640;28;20038;-60
2023/09/18 09:47:57;;;;;;;3.58;1.00;;;;;;;17.94;100.00;96768.53;4998892;28;20138;-60
2023/09/18 09:50:25;;;;;;;2.22;0.63;;;;;;;17.99;100.00;96767.56;5000355;28;20765;-60
2023/09/18 09:52:54;;;;;;;3.75;1.00;;;;;;;17.79;100.00;96755.25;5000963;28;20680;-60
2023/09/18 09:55:30;;;;;;;4.63;1.10;;;;;;;17.68;100.00;96741.84;4996957;28;20544;-60
2023/09/18 09:57:59;;;;;;;4.00;0.98;;;;;;;17.84;100.00;96732.41;4998036;28;20107;-60
2023/09/18 10:00:32;;;;;;;4.13;0.73;;;;;;;18.03;100.00;96726.69;4995868;28;20292;-60
2023/09/18 10:03:02;;;;;;;2.10;0.70;;;;;;;18.16;100.00;96742.22;5004104;28;20045;-60
2023/09/18 10:05:34;;;;;;;2.03;0.73;;;;;;;18.24;100.00;96757.06;4999091;28;20038;-60
2023/09/18 10:08:23;;;;;;;2.72;0.73;;;;;;;18.27;100.00;96791.25;4995220;28;20561;-60
2023/09/18 10:10:51;;;;;;;3.13;0.82;;;;;;;18.16;100.00;96796.19;4992244;28;20042;-60
2023/09/18 10:13:20;;;;;;;2.83;0.82;;;;;;;18.19;100.00;96798.31;4996346;28;20130;-60
2023/09/18 10:15:50;;;;;;;3.80;1.00;;;;;;;18.18;100.00;96785.75;4993164;28;20046;-60
2023/09/18 10:18:26;;;;;;;2.85;1.00;;;;;;;17.99;100.00;96780.47;4996610;28;20108;-60
2023/09/18 10:21:12;;;;;;;3.08;1.42;;;;;;;18.10;100.00;96770.91;4999211;28;20034;-60
2023/09/18 10:23:44;;;;;;;4.85;1.83;;;;;;;17.99;100.00;96785.97;5002503;28;20149;-60
2023/09/18 10:26:16;;;;;;;3.38;1.00;;;;;;;18.09;100.00;96785.69;5003509;28;20128;-60
2023/09/18 10:28:44;;;;;;;3.63;0.70;;;;;;;18.09;100.00;96790.41;4996281;28;20041;-60
2023/09/18 10:31:12;;;;;;;5.45;1.17;;;;;;;17.92;100.00;96811.84;4995111;28;20049;-60
2023/09/18 10:33:40;;;;;;;4.30;0.90;;;;;;;17.95;100.00;96824.13;5000140;28;20060;-60
2023/09/18 10:36:08;;;;;;;3.30;1.00;;;;;;;18.07;100.00;96823.53;4998243;28;20052;-60
2023/09/18 10:38:37;;;;;;;3.72;0.90;;;;;;;18.12;100.00;96811.66;5002724;28;20362;-60
2023/09/18 10:41:05;;;;;;;2.67;0.70;;;;;;;18.14;100.00;96814.91;5000430;28;20030;-60
2023/09/18 10:43:31;;;;;;;6.78;1.17;;;;;;;18.11;100.00;96815.53;5000178;28;20053;-60
2023/09/18 10:45:58;;;;;;;5.43;1.25;;;;;;;18.04;100.00;96813.22;4992739;28;20045;-60
2023/09/18 10:48:26;;;;;;;2.25;0.98;;;;;;;18.00;100.00;96813.03;5001048;28;20084;-59
2023/09/18 10:50:53;;;;;;;3.08;0.90;;;;;;;18.03;100.00;96806.13;4999155;28;20034;-59
2023/09/18 10:53:21;;;;;;;2.95;1.08;;;;;;;18.03;100.00;96804.19;5000478;28;20057;-59
2023/09/18 10:55:48;;;;;;;5.35;1.70;;;;;;;17.94;100.00;96806.88;4993408;28;20054;-60
2023/09/18 10:58:24;;;;;;;5.70;1.50;;;;;;;17.89;100.00;96793.34;4993962;28;20595;-59
2023/09/18 11:00:51;;;;;;;3.13;1.00;;;;;;;17.85;100.00;96786.88;4991983;28;20069;-60
2023/09/18 11:03:19;;;;;;;3.38;0.95;;;;;;;17.94;100.00;96787.72;5000726;28;20030;-59
2023/09/18 11:05:46;;;;;;;2.70;1.10;;;;;;;17.77;100.00;96788.41;4995473;28;20037;-59
2023/09/18 11:08:29;;;;;;;4.75;1.15;;;;;;;17.89;100.00;96787.03;5000267;28;20038;-59
2023/09/18 11:11:11;;;;;;;3.72;0.98;;;;;;;17.80;100.00;96784.28;5000652;28;20049;-59
2023/09/18 11:13:41;;;;;;;3.85;1.20;;;;;;;17.83;100.00;96786.34;4999874;28;20280;-59
2023/09/18 11:16:21;;;;;;;2.97;1.13;;;;;;;17.84;100.00;96792.66;4996694;28;20141;-59
2023/09/18 11:18:53;;;;;;;4.03;0.90;;;;;;;18.16;100.00;96793.47;4999112;28;20275;-59
2023/09/18 11:21:25;;;;;;;2.90;1.00;;;;;;;18.12;100.00;96796.03;4993959;28;20628;-59
2023/09/18 11:24:03;;;;;;;6.03;1.58;;;;;;;18.26;100.00;96795.94;4999979;28;20049;-59
2023/09/18 11:26:32;;;;;;;3.22;1.00;;;;;;;18.38;100.00;96800.81;4998665;28;20046;-59
2023/09/18 11:29:08;;;;;;;3.47;1.00;;;;;;;18.45;100.00;96808.56;4997400;28;20049;-59
2023/09/18 11:31:50;;;;;;;3.10;1.08;;;;;;;18.49;100.00;96809.56;4995906;28;20042;-59
2023/09/18 11:34:28;;;;;;;5.43;2.20;;;;;;;18.36;100.00;96807.72;4997678;28;20074;-59